Accueil
METAR-TAF:

METAR-TAF

Aéroports :

Matsumoto, Japon

latitude: 36-10N, longitude: 137-56E, altitude: 668 m

Observation

Le bulletin a été fait il y a 31 minutes, à 05:00 UTC
Vent 3 kt de direction variable
Température 7°C
Humidité 31%
Pression 1021 hPa
Visibilité 10 km ou plus
Quelques nuages à une hauteur de 5000 ft
Nuages fragmentés

METAR: RJAF 260500Z VRB03KT 9999 FEW050 BKN/// 07/M09 Q1021

Heure: 14:31 (05:31 UTC)


TAF: absent

Observations et prévisions météorologiques de plus de 4000 aéroports (messages METAR et TAF).

Les stations disponibles sont représentées par des disques jaunes et rouges sur la carte.

Passer la souris dessus pour voir le nom de la station.

Cliquer dessus pour voir les observations et prévisions météorologiques.

Pour changer de carte: cliquez sur les boutons verts avec une croix noire pour zoomer, sur le bouton vert avec un tiret pour effectuer un zoom arrière, ou sur les flèches vertes pour les cartes adjacentes.


METAR-TAF: